Time;durP1;ratioP1;P1;durP2;ratioP2;P2;SDS_P1;SDS_P2;PMS_P1;PMS_P2;Temp;Humidity;BMP_temperature;BMP_pressure;BME280_temperature;BME280_humidity;BME280_pressure;Samples;Min_cycle;Max_cycle;Signal;HPM_P1;HPM_P2
2023/12/09 00:01:11;;;;;;;31.20;7.63;;;;;;;5.86;100.00;101071.50;5071411;28;20120;-79
2023/12/09 00:03:37;;;;;;;31.83;7.32;;;;;;;5.85;100.00;101058.34;5071507;28;20039;-79
2023/12/09 00:06:04;;;;;;;24.35;7.07;;;;;;;5.82;100.00;101060.09;5064144;28;20044;-79
2023/12/09 00:08:29;;;;;;;26.50;6.72;;;;;;;5.79;100.00;101069.72;5077372;28;20143;-79
2023/12/09 00:10:55;;;;;;;34.70;7.22;;;;;;;5.81;100.00;101065.31;5062359;28;20139;-79
2023/12/09 00:13:20;;;;;;;28.80;7.30;;;;;;;5.80;100.00;101061.81;5069487;28;20063;-79
2023/12/09 00:15:45;;;;;;;29.50;7.70;;;;;;;5.79;100.00;101067.09;5070146;28;20143;-79
2023/12/09 00:18:11;;;;;;;26.25;7.53;;;;;;;5.78;100.00;101066.19;5071246;28;20044;-78
2023/12/09 00:20:36;;;;;;;28.73;7.00;;;;;;;5.78;100.00;101062.69;5071520;28;20040;-79
2023/12/09 00:23:02;;;;;;;23.52;6.93;;;;;;;5.78;100.00;101062.69;5070024;28;20468;-79
2023/12/09 00:25:27;;;;;;;31.92;6.47;;;;;;;5.78;100.00;101062.69;5071248;28;20127;-79
2023/12/09 00:27:53;;;;;;;29.52;7.15;;;;;;;5.73;100.00;101060.06;5069789;28;20040;-79
2023/12/09 00:30:18;;;;;;;31.10;6.72;;;;;;;5.73;100.00;101064.44;5067805;28;20510;-79
2023/12/09 00:32:44;;;;;;;27.75;7.18;;;;;;;5.72;100.00;101066.22;5069895;28;20562;-78
2023/12/09 00:35:10;;;;;;;31.08;7.00;;;;;;;5.71;100.00;101061.84;5050185;28;20041;-79
2023/12/09 00:37:36;;;;;;;28.00;7.43;;;;;;;5.74;100.00;101056.59;5071315;28;20055;-80
2023/12/09 00:40:02;;;;;;;33.70;6.95;;;;;;;5.75;100.00;101053.06;5070000;28;20491;-79
2023/12/09 00:42:27;;;;;;;31.20;8.85;;;;;;;5.72;100.00;101060.06;5070188;28;20386;-78
2023/12/09 00:44:53;;;;;;;25.98;6.32;;;;;;;5.76;100.00;101059.19;5071085;28;20047;-79
2023/12/09 00:47:18;;;;;;;32.75;7.35;;;;;;;5.76;100.00;101070.59;5068382;28;20079;-79
2023/12/09 00:49:44;;;;;;;31.77;7.15;;;;;;;5.76;100.00;101070.59;5053137;28;20040;-79
2023/12/09 00:52:11;;;;;;;32.58;6.25;;;;;;;5.81;100.00;101066.22;5071268;28;20463;-79
2023/12/09 00:54:36;;;;;;;32.53;7.03;;;;;;;5.77;100.00;101069.72;5069799;28;20029;-79
2023/12/09 00:57:02;;;;;;;35.47;8.00;;;;;;;5.76;100.00;101070.59;5071030;28;20097;-78
2023/12/09 00:59:28;;;;;;;28.58;6.95;;;;;;;5.74;100.00;101059.22;5071124;28;20475;-78
2023/12/09 01:01:53;;;;;;;26.63;7.03;;;;;;;5.70;100.00;101052.19;5070916;28;20464;-79
2023/12/09 01:04:19;;;;;;;25.52;6.70;;;;;;;5.69;100.00;101044.31;5071139;28;20036;-78
2023/12/09 01:06:44;;;;;;;42.22;9.35;;;;;;;5.66;100.00;101047.78;5070698;28;20463;-79
2023/12/09 01:09:09;;;;;;;36.58;7.55;;;;;;;5.62;100.00;101050.44;5071072;28;20048;-78
2023/12/09 01:11:35;;;;;;;35.88;7.32;;;;;;;5.61;100.00;101065.28;5070563;28;20067;-78
2023/12/09 01:14:00;;;;;;;26.27;6.53;;;;;;;5.56;100.00;101062.69;5070592;28;20060;-78
2023/12/09 01:16:26;;;;;;;29.33;6.70;;;;;;;5.55;100.00;101058.28;5070843;28;20063;-79
2023/12/09 01:18:51;;;;;;;34.97;6.93;;;;;;;5.49;100.00;101047.78;5069691;28;20048;-79
2023/12/09 01:21:17;;;;;;;32.05;6.28;;;;;;;5.48;100.00;101045.13;5072899;28;20044;-79
2023/12/09 01:23:42;;;;;;;25.63;7.03;;;;;;;5.44;100.00;101039.00;5074261;28;20036;-78
2023/12/09 01:26:08;;;;;;;29.48;6.97;;;;;;;5.46;100.00;101052.13;5073234;28;20020;-79
2023/12/09 01:28:33;;;;;;;30.08;7.97;;;;;;;5.43;100.00;101050.38;5070640;28;20072;-79
2023/12/09 01:30:59;;;;;;;24.20;7.32;;;;;;;5.47;100.00;101044.28;5072200;28;20032;-78
2023/12/09 01:33:24;;;;;;;24.02;7.20;;;;;;;5.46;100.00;101047.75;5073945;28;20032;-79
2023/12/09 01:35:50;;;;;;;27.83;7.22;;;;;;;5.45;100.00;101048.63;5072937;28;20553;-79
2023/12/09 01:38:15;;;;;;;29.15;7.00;;;;;;;5.44;100.00;101048.63;5074094;28;20032;-79
2023/12/09 01:40:40;;;;;;;38.22;8.38;;;;;;;5.48;100.00;101053.88;5074061;28;20071;-79
2023/12/09 01:43:10;;;;;;;37.95;7.63;;;;;;;5.49;100.00;101058.28;5056251;28;20062;-79
2023/12/09 01:45:36;;;;;;;30.55;7.97;;;;;;;5.50;100.00;101053.91;5059685;28;20041;-79
2023/12/09 01:48:03;;;;;;;25.60;7.97;;;;;;;5.49;100.00;101050.41;5053952;28;20040;-79
2023/12/09 01:50:30;;;;;;;28.48;8.38;;;;;;;5.45;100.00;101039.88;5073706;28;20127;-79
2023/12/09 01:52:57;;;;;;;28.52;7.68;;;;;;;5.43;100.00;101033.75;5072040;28;20136;-78
2023/12/09 01:55:23;;;;;;;23.25;7.90;;;;;;;5.38;100.00;101024.09;5073787;28;20037;-79
2023/12/09 01:57:51;;;;;;;29.17;7.43;;;;;;;5.37;100.00;101018.88;5073536;28;20143;-78
2023/12/09 02:00:17;;;;;;;29.00;7.55;;;;;;;5.38;100.00;101013.59;5073819;28;20433;-78
2023/12/09 02:02:44;;;;;;;31.58;8.50;;;;;;;5.37;100.00;101019.72;5052240;28;20533;-79
2023/12/09 02:05:11;;;;;;;31.15;7.65;;;;;;;5.37;100.00;101016.22;5071995;28;20128;-78
2023/12/09 02:07:36;;;;;;;33.60;8.40;;;;;;;5.42;100.00;101022.38;5073718;28;20060;-79
2023/12/09 02:10:03;;;;;;;37.70;7.80;;;;;;;5.37;100.00;101022.34;5055591;28;20456;-79
2023/12/09 02:12:40;;;;;;;22.33;6.72;;;;;;;5.36;100.00;101017.09;5072346;28;20348;-79
2023/12/09 02:15:24;;;;;;;29.80;7.50;;;;;;;5.32;100.00;101016.22;5071734;28;20372;-79
2023/12/09 02:18:05;;;;;;;31.92;7.63;;;;;;;5.30;100.00;101011.84;5072701;28;20033;-79
2023/12/09 02:20:31;;;;;;;31.23;8.48;;;;;;;5.28;100.00;101010.94;5055329;28;20305;-79
2023/12/09 02:23:06;;;;;;;29.73;7.85;;;;;;;5.28;100.00;101018.81;5073550;28;20044;-79
2023/12/09 02:25:33;;;;;;;29.00;7.80;;;;;;;5.23;100.00;101005.69;5071933;28;20036;-78
2023/12/09 02:28:02;;;;;;;35.22;8.57;;;;;;;5.23;100.00;100996.94;5072626;28;20028;-79
2023/12/09 02:30:32;;;;;;;35.53;8.80;;;;;;;5.20;100.00;101008.31;5070671;28;20073;-79
2023/12/09 02:32:59;;;;;;;27.83;8.30;;;;;;;5.13;100.00;101001.28;5072924;28;20444;-79
2023/12/09 02:35:27;;;;;;;27.30;7.32;;;;;;;5.10;100.00;101011.78;5072644;28;20471;-79
2023/12/09 02:37:54;;;;;;;24.85;7.30;;;;;;;5.03;100.00;100999.50;5054788;28;20047;-79
2023/12/09 02:40:21;;;;;;;24.85;6.43;;;;;;;5.05;100.00;100998.63;5073077;28;20073;-79
2023/12/09 02:42:49;;;;;;;26.85;7.93;;;;;;;5.03;100.00;100999.50;5072931;28;20110;-79
2023/12/09 02:45:18;;;;;;;27.23;7.85;;;;;;;4.96;100.00;100981.09;5071677;28;20037;-79
2023/12/09 02:47:46;;;;;;;27.85;7.35;;;;;;;4.96;100.00;100978.47;5070097;28;20364;-79
2023/12/09 02:50:11;;;;;;;29.23;8.02;;;;;;;4.92;100.00;100988.94;5071431;28;20033;-79
2023/12/09 02:52:37;;;;;;;31.58;9.65;;;;;;;4.90;100.00;100988.09;5072532;28;20501;-79
2023/12/09 02:55:03;;;;;;;33.97;8.15;;;;;;;4.87;100.00;100986.34;5071310;28;20043;-79
2023/12/09 02:57:28;;;;;;;34.78;8.40;;;;;;;4.86;100.00;100981.06;5071223;28;20044;-78
2023/12/09 02:59:53;;;;;;;20.88;7.20;;;;;;;4.81;100.00;100986.28;5050415;28;20128;-79
2023/12/09 03:02:19;;;;;;;33.47;8.27;;;;;;;4.80;100.00;100973.16;5061227;28;20129;-79
2023/12/09 03:04:44;;;;;;;31.67;8.00;;;;;;;4.80;100.00;100975.78;5054323;28;20033;-79
2023/12/09 03:07:10;;;;;;;24.75;7.40;;;;;;;4.78;100.00;100975.78;5072521;28;20032;-78
2023/12/09 03:09:35;;;;;;;22.02;7.63;;;;;;;4.74;100.00;100959.16;5070856;28;20093;-78
2023/12/09 03:12:01;;;;;;;32.10;9.13;;;;;;;4.76;100.00;100968.78;5070831;28;20036;-78
2023/12/09 03:14:26;;;;;;;32.38;7.70;;;;;;;4.73;100.00;100946.91;5070877;28;20048;-79
2023/12/09 03:16:52;;;;;;;24.73;6.97;;;;;;;4.75;100.00;100970.53;5070657;28;20036;-79
2023/12/09 03:19:17;;;;;;;28.33;7.60;;;;;;;4.72;100.00;100942.56;5069977;28;20032;-79
2023/12/09 03:21:43;;;;;;;27.77;8.10;;;;;;;4.70;100.00;100970.53;5071605;28;20129;-79
2023/12/09 03:24:09;;;;;;;29.98;7.80;;;;;;;4.71;100.00;100939.91;5072022;28;20019;-79
2023/12/09 03:26:34;;;;;;;23.38;7.60;;;;;;;4.73;100.00;100977.53;5072040;28;20033;-79
2023/12/09 03:28:59;;;;;;;36.70;8.48;;;;;;;4.71;100.00;100946.03;5071777;28;20068;-79
2023/12/09 03:31:25;;;;;;;25.13;7.70;;;;;;;4.78;100.00;100974.94;5070678;28;20045;-79
2023/12/09 03:33:50;;;;;;;33.08;7.78;;;;;;;4.74;100.00;100946.03;5053623;28;20048;-79
2023/12/09 03:36:16;;;;;;;33.65;7.82;;;;;;;4.77;100.00;100960.91;5071107;28;20028;-79
2023/12/09 03:38:42;;;;;;;29.60;7.55;;;;;;;4.76;100.00;100947.81;5071724;28;20116;-79
2023/12/09 03:41:07;;;;;;;31.15;7.78;;;;;;;4.76;100.00;100950.44;5071935;28;20463;-79
2023/12/09 03:43:33;;;;;;;37.47;7.82;;;;;;;4.78;100.00;100951.31;5071606;28;20036;-79
2023/12/09 03:45:59;;;;;;;39.22;8.00;;;;;;;4.79;100.00;100953.91;5072184;28;20043;-79
2023/12/09 03:48:28;;;;;;;21.38;6.18;;;;;;;4.77;100.00;100946.91;5071631;28;20036;-79
2023/12/09 03:50:54;;;;;;;30.50;6.95;;;;;;;4.77;100.00;100946.91;5059197;28;20074;-79
2023/12/09 03:53:20;;;;;;;29.73;6.97;;;;;;;4.79;100.00;100940.81;5068095;28;20029;-79
2023/12/09 03:55:45;;;;;;;43.97;7.43;;;;;;;4.79;100.00;100950.44;5071970;28;20102;-79
2023/12/09 03:58:11;;;;;;;27.85;6.28;;;;;;;4.78;100.00;100944.31;5071801;28;20036;-79
2023/12/09 04:00:36;;;;;;;35.22;7.20;;;;;;;4.77;100.00;100934.66;5070406;28;20043;-79
2023/12/09 04:03:03;;;;;;;31.27;6.30;;;;;;;4.74;100.00;100922.41;5070544;28;20461;-79
2023/12/09 04:05:29;;;;;;;29.92;7.47;;;;;;;4.77;100.00;100920.69;5071705;28;20036;-79
2023/12/09 04:07:54;;;;;;;32.83;6.90;;;;;;;4.75;100.00;100920.69;5071834;28;20479;-79
2023/12/09 04:10:19;;;;;;;24.40;5.72;;;;;;;4.73;100.00;100914.56;5070214;28;20040;-79
2023/12/09 04:12:47;;;;;;;24.33;5.82;;;;;;;4.70;100.00;100904.06;5068897;28;20429;-79
2023/12/09 04:15:13;;;;;;;29.17;6.28;;;;;;;4.68;100.00;100905.81;5053589;28;20114;-79
2023/12/09 04:17:38;;;;;;;26.70;7.30;;;;;;;4.70;100.00;100909.31;5071526;28;20040;-79
2023/12/09 04:20:08;;;;;;;33.97;6.10;;;;;;;4.71;100.00;100905.81;5069175;28;20042;-79
2023/12/09 04:22:37;;;;;;;23.58;6.18;;;;;;;4.72;100.00;100918.94;5071538;28;20032;-79
2023/12/09 04:25:04;;;;;;;25.13;6.55;;;;;;;4.69;100.00;100889.19;5070244;28;20498;-80
2023/12/09 04:27:31;;;;;;;24.85;6.07;;;;;;;4.69;100.00;100894.44;5070072;28;20028;-79
2023/12/09 04:29:57;;;;;;;25.40;6.25;;;;;;;4.68;100.00;100904.06;5070261;28;20047;-79
2023/12/09 04:32:23;;;;;;;23.33;5.97;;;;;;;4.66;100.00;100899.66;5070126;28;20119;-79
2023/12/09 04:34:48;;;;;;;28.88;5.95;;;;;;;4.63;100.00;100884.81;5070155;28;20079;-79
2023/12/09 04:37:14;;;;;;;20.25;5.97;;;;;;;4.64;100.00;100885.66;5070181;28;20032;-79
2023/12/09 04:39:39;;;;;;;28.33;5.95;;;;;;;4.63;100.00;100897.03;5071569;28;20066;-79
2023/12/09 04:42:05;;;;;;;26.23;5.80;;;;;;;4.57;100.00;100887.38;5071476;28;20094;-79
2023/12/09 04:44:30;;;;;;;30.88;5.90;;;;;;;4.63;100.00;100899.66;5071377;28;20059;-79
2023/12/09 04:46:56;;;;;;;22.50;6.25;;;;;;;4.63;100.00;100902.28;5070207;28;20051;-79
2023/12/09 04:49:21;;;;;;;32.50;6.97;;;;;;;4.63;100.00;100881.31;5069757;28;20043;-79
2023/12/09 04:51:47;;;;;;;24.17;5.55;;;;;;;4.63;100.00;100879.56;5071461;28;20055;-79
2023/12/09 04:54:13;;;;;;;27.75;6.35;;;;;;;4.65;100.00;100880.44;5071300;28;20115;-79
2023/12/09 04:56:38;;;;;;;31.55;6.53;;;;;;;4.63;100.00;100870.81;5074030;28;20016;-79
2023/12/09 04:59:04;;;;;;;21.40;5.57;;;;;;;4.68;100.00;100869.06;5073924;28;20044;-79
2023/12/09 05:01:29;;;;;;;18.77;5.45;;;;;;;4.65;100.00;100864.69;5073567;28;20036;-79
2023/12/09 05:03:57;;;;;;;28.58;5.90;;;;;;;4.64;100.00;100873.44;5075038;28;20036;-79
2023/12/09 05:06:22;;;;;;;23.40;4.90;;;;;;;4.66;100.00;100870.81;5074833;28;20051;-79
2023/12/09 05:08:48;;;;;;;31.25;6.40;;;;;;;4.64;100.00;100872.56;5073768;28;20023;-79
2023/12/09 05:11:13;;;;;;;23.25;6.60;;;;;;;4.64;100.00;100865.56;5074891;28;20115;-79
2023/12/09 05:13:38;;;;;;;23.02;6.45;;;;;;;4.67;100.00;100862.06;5069577;28;20128;-78
2023/12/09 05:16:05;;;;;;;25.08;6.15;;;;;;;4.67;100.00;100862.06;5074704;28;20049;-79
2023/12/09 05:18:32;;;;;;;28.17;5.78;;;;;;;4.64;100.00;100859.44;5072004;28;20036;-79
2023/12/09 05:20:57;;;;;;;22.88;6.03;;;;;;;4.66;100.00;100862.94;5073429;28;20089;-79
2023/12/09 05:23:23;;;;;;;17.35;5.18;;;;;;;4.67;100.00;100860.34;5073150;28;20127;-79
2023/12/09 05:25:49;;;;;;;26.33;5.88;;;;;;;4.67;100.00;100860.34;5073253;28;20032;-79
2023/12/09 05:28:15;;;;;;;22.25;5.65;;;;;;;4.65;100.00;100848.97;5073154;28;20056;-79
2023/12/09 05:30:41;;;;;;;26.92;5.65;;;;;;;4.66;100.00;100841.97;5056678;28;20044;-79
2023/12/09 05:33:07;;;;;;;25.98;5.32;;;;;;;4.64;100.00;100841.94;5073251;28;20050;-79
2023/12/09 05:35:32;;;;;;;24.10;5.32;;;;;;;4.64;100.00;100841.06;5072978;28;20044;-79
2023/12/09 05:37:59;;;;;;;21.38;5.40;;;;;;;4.65;100.00;100848.06;5073027;28;20059;-79
2023/12/09 05:40:24;;;;;;;34.13;6.38;;;;;;;4.62;100.00;100837.56;5073043;28;20448;-78
2023/12/09 05:42:49;;;;;;;21.98;4.97;;;;;;;4.66;100.00;100836.72;5056128;28;20483;-79
2023/12/09 05:45:15;;;;;;;28.83;5.45;;;;;;;4.68;100.00;100835.84;5074431;28;20116;-79
2023/12/09 05:47:40;;;;;;;26.40;5.75;;;;;;;4.69;100.00;100832.34;5074045;28;20384;-79
2023/12/09 05:50:06;;;;;;;16.95;4.95;;;;;;;4.68;100.00;100835.84;5074070;28;20036;-78
2023/12/09 05:52:32;;;;;;;34.15;6.38;;;;;;;4.70;100.00;100841.09;5072928;28;20029;-79
2023/12/09 05:54:57;;;;;;;16.85;4.43;;;;;;;4.71;100.00;100841.09;5073462;28;20132;-79
2023/12/09 05:57:23;;;;;;;22.88;6.20;;;;;;;4.72;100.00;100834.09;5055907;28;20113;-79
2023/12/09 05:59:48;;;;;;;25.30;5.70;;;;;;;4.74;100.00;100834.97;5072489;28;20039;-79
2023/12/09 06:02:13;;;;;;;29.77;6.88;;;;;;;4.73;100.00;100834.09;5074143;28;20510;-79
2023/12/09 06:04:39;;;;;;;28.02;5.55;;;;;;;4.72;100.00;100835.00;5073865;28;20021;-79
2023/12/09 06:07:04;;;;;;;20.90;5.45;;;;;;;4.76;100.00;100832.38;5075887;28;20032;-79
2023/12/09 06:09:30;;;;;;;19.40;5.13;;;;;;;4.76;100.00;100824.50;5076565;28;20139;-79
2023/12/09 06:11:55;;;;;;;17.40;4.53;;;;;;;4.71;100.00;100812.22;5073587;28;20479;-79
2023/12/09 06:14:21;;;;;;;19.52;5.18;;;;;;;4.70;100.00;100814.88;5075213;28;20120;-79
2023/12/09 06:16:47;;;;;;;33.90;6.10;;;;;;;4.68;100.00;100812.25;5073700;28;20394;-79
2023/12/09 06:19:13;;;;;;;22.77;5.78;;;;;;;4.69;100.00;100802.63;5071825;28;20036;-79
2023/12/09 06:21:38;;;;;;;25.85;4.90;;;;;;;4.69;100.00;100798.25;5073456;28;20067;-79
2023/12/09 06:24:04;;;;;;;28.45;4.97;;;;;;;4.69;100.00;100792.13;5073659;28;20030;-79
2023/12/09 06:26:30;;;;;;;27.63;5.32;;;;;;;4.67;100.00;100793.88;5055485;28;20040;-79
2023/12/09 06:28:55;;;;;;;25.33;5.25;;;;;;;4.66;100.00;100786.88;5073576;28;20115;-79
2023/12/09 06:31:21;;;;;;;29.13;5.75;;;;;;;4.64;100.00;100773.75;5073431;28;20052;-79
2023/12/09 06:33:46;;;;;;;23.42;5.25;;;;;;;4.64;100.00;100781.63;5073203;28;20033;-79
2023/12/09 06:36:11;;;;;;;24.85;5.50;;;;;;;4.62;100.00;100778.09;5073256;28;20040;-79
2023/12/09 06:38:40;;;;;;;26.20;5.60;;;;;;;4.62;100.00;100778.09;5073057;28;20107;-80
2023/12/09 06:41:09;;;;;;;30.40;5.60;;;;;;;4.59;100.00;100770.25;5071924;28;20383;-79
2023/12/09 06:43:34;;;;;;;22.50;5.25;;;;;;;4.61;100.00;100762.41;5071944;28;20150;-79
2023/12/09 06:46:03;;;;;;;21.60;5.80;;;;;;;4.60;100.00;100755.38;5055202;28;20170;-79
2023/12/09 06:48:29;;;;;;;15.95;4.32;;;;;;;4.58;100.00;100752.78;5071789;28;20127;-79
2023/12/09 06:50:54;;;;;;;23.60;4.80;;;;;;;4.56;100.00;100745.78;5071672;28;20109;-79
2023/12/09 06:53:20;;;;;;;21.45;4.65;;;;;;;4.58;100.00;100733.53;5071606;28;20051;-79
2023/12/09 06:55:45;;;;;;;23.80;5.07;;;;;;;4.61;100.00;100739.66;5073198;28;20036;-79
2023/12/09 06:58:11;;;;;;;23.50;5.40;;;;;;;4.63;100.00;100729.19;5071597;28;20542;-79
2023/12/09 07:00:37;;;;;;;32.17;5.07;;;;;;;4.60;100.00;100716.03;5071458;28;20352;-79
2023/12/09 07:03:02;;;;;;;22.38;4.60;;;;;;;4.58;100.00;100705.56;5053516;28;20045;-79
2023/12/09 07:05:28;;;;;;;28.00;5.78;;;;;;;4.58;100.00;100705.56;5071523;28;20101;-79
2023/12/09 07:07:53;;;;;;;22.33;4.78;;;;;;;4.58;100.00;100696.84;5072728;28;20028;-79
2023/12/09 07:10:19;;;;;;;16.60;4.32;;;;;;;4.57;100.00;100684.56;5072555;28;20029;-79
2023/12/09 07:12:45;;;;;;;26.55;4.72;;;;;;;4.59;100.00;100667.97;5071016;28;20033;-79
2023/12/09 07:15:12;;;;;;;22.52;5.63;;;;;;;4.59;100.00;100660.09;5072248;28;20125;-80
2023/12/09 07:17:37;;;;;;;24.80;5.72;;;;;;;4.60;100.00;100658.34;5071541;28;20040;-79
2023/12/09 07:20:05;;;;;;;23.70;4.97;;;;;;;4.62;100.00;100656.59;5071647;28;20047;-79
2023/12/09 07:22:31;;;;;;;19.90;4.63;;;;;;;4.61;100.00;100660.09;5071072;28;20101;-79
2023/12/09 07:24:56;;;;;;;22.95;4.38;;;;;;;4.63;100.00;100674.97;5070925;28;20392;-79
2023/12/09 07:27:22;;;;;;;28.73;5.00;;;;;;;4.64;100.00;100660.97;5050992;28;20051;-79
2023/12/09 07:29:47;;;;;;;24.63;4.97;;;;;;;4.67;100.00;100667.97;5054340;28;20111;-79
2023/12/09 07:32:13;;;;;;;18.08;4.32;;;;;;;4.70;100.00;100665.34;5070947;28;20491;-79
2023/12/09 07:34:38;;;;;;;13.80;4.22;;;;;;;4.72;100.00;100669.72;5070919;28;20371;-79
2023/12/09 07:37:04;;;;;;;17.60;4.93;;;;;;;4.75;100.00;100676.72;5070725;28;20602;-79
2023/12/09 07:39:29;;;;;;;24.40;6.05;;;;;;;4.74;100.00;100662.69;5070972;28;20456;-79
2023/12/09 07:41:54;;;;;;;25.00;5.05;;;;;;;4.80;100.00;100655.69;5071010;28;20106;-79
2023/12/09 07:44:20;;;;;;;21.77;5.15;;;;;;;4.81;100.00;100650.47;5072290;28;20122;-79
2023/12/09 07:46:46;;;;;;;18.63;5.13;;;;;;;4.82;100.00;100651.31;5072042;28;20499;-79
2023/12/09 07:49:12;;;;;;;17.30;5.32;;;;;;;4.82;100.00;100649.59;5071883;28;20098;-79
2023/12/09 07:51:38;;;;;;;15.40;4.68;;;;;;;4.82;100.00;100639.09;5071935;28;20040;-79
2023/12/09 07:54:04;;;;;;;17.70;5.07;;;;;;;4.86;100.00;100630.34;5070092;28;20032;-79
2023/12/09 07:56:30;;;;;;;21.10;4.82;;;;;;;4.91;100.00;100625.09;5070274;28;20101;-79
2023/12/09 07:58:56;;;;;;;22.13;4.57;;;;;;;4.94;100.00;100617.19;5063548;28;20031;-79
2023/12/09 08:01:22;;;;;;;17.25;4.00;;;;;;;4.95;100.00;100609.34;5068763;28;20614;-79
2023/12/09 08:03:47;;;;;;;31.52;5.45;;;;;;;5.04;100.00;100613.66;5052945;28;20041;-78
2023/12/09 08:06:13;;;;;;;22.25;4.93;;;;;;;5.06;100.00;100618.91;5056461;28;20166;-78
2023/12/09 08:08:39;;;;;;;24.30;4.40;;;;;;;5.06;100.00;100601.41;5070539;28;20040;-78
2023/12/09 08:11:05;;;;;;;20.88;4.43;;;;;;;5.07;100.00;100605.81;5062725;28;20041;-78
2023/12/09 08:13:31;;;;;;;25.20;5.60;;;;;;;5.13;100.00;100605.78;5062105;28;20119;-77
2023/12/09 08:15:57;;;;;;;30.23;4.20;;;;;;;5.17;100.00;100601.41;5065115;28;20056;-78
2023/12/09 08:18:22;;;;;;;21.70;4.10;;;;;;;5.20;100.00;100604.00;5063014;28;20043;-78
2023/12/09 08:20:48;;;;;;;20.33;4.00;;;;;;;5.25;100.00;100607.50;5067540;28;20040;-78
2023/12/09 08:23:13;;;;;;;19.83;4.47;;;;;;;5.29;100.00;100609.22;5067248;28;20456;-78
2023/12/09 08:25:39;;;;;;;18.20;3.50;;;;;;;5.31;100.00;100611.84;5066721;28;20040;-74
2023/12/09 08:28:05;;;;;;;18.58;4.20;;;;;;;5.37;100.00;100606.56;5070060;28;20090;-74
2023/12/09 08:30:31;;;;;;;19.48;3.90;;;;;;;5.45;100.00;100604.78;5065722;28;20033;-73
2023/12/09 08:32:58;;;;;;;17.48;3.85;;;;;;;5.45;100.00;100607.41;5057660;28;20459;-74
2023/12/09 08:35:24;;;;;;;21.77;4.30;;;;;;;5.46;100.00;100608.25;5067016;28;20052;-73
2023/12/09 08:37:49;;;;;;;13.10;3.85;;;;;;;5.47;100.00;100596.91;5066893;28;20043;-73
2023/12/09 08:40:15;;;;;;;17.48;4.40;;;;;;;5.49;100.00;100592.50;5067116;28;20513;-73
2023/12/09 08:42:43;;;;;;;10.18;3.60;;;;;;;5.51;100.00;100582.84;5075127;28;20071;-74
2023/12/09 08:45:11;;;;;;;16.40;3.72;;;;;;;5.54;100.00;100577.59;5074116;28;20039;-73
2023/12/09 08:47:37;;;;;;;20.15;4.57;;;;;;;5.59;100.00;100589.81;5075316;28;20037;-74
2023/12/09 08:50:06;;;;;;;24.23;4.10;;;;;;;5.62;100.00;100577.56;5073978;28;20052;-74
2023/12/09 08:52:32;;;;;;;13.20;3.20;;;;;;;5.61;100.00;100568.78;5073903;28;20098;-73
2023/12/09 08:54:58;;;;;;;16.67;3.53;;;;;;;5.70;100.00;100568.72;5074908;28;20475;-74
2023/12/09 08:57:25;;;;;;;19.33;4.32;;;;;;;5.73;100.00;100573.09;5069331;28;20129;-74
2023/12/09 08:59:50;;;;;;;14.70;3.25;;;;;;;5.73;100.00;100559.97;5074926;28;20029;-73
2023/12/09 09:02:16;;;;;;;18.92;4.50;;;;;;;5.75;100.00;100560.81;5073853;28;20467;-74
2023/12/09 09:04:42;;;;;;;14.63;3.47;;;;;;;5.78;100.00;100561.66;5054877;28;20032;-74
2023/12/09 09:07:08;;;;;;;13.52;3.22;;;;;;;5.82;100.00;100554.66;5072300;28;20032;-74
2023/12/09 09:09:34;;;;;;;12.35;3.35;;;;;;;5.86;100.00;100540.63;5074904;28;20102;-73
2023/12/09 09:12:00;;;;;;;11.68;3.25;;;;;;;5.85;100.00;100522.22;5073218;28;20040;-74
2023/12/09 09:14:25;;;;;;;15.18;3.40;;;;;;;5.88;100.00;100522.19;5073033;28;20052;-74
2023/12/09 09:16:51;;;;;;;13.95;3.03;;;;;;;5.91;100.00;100502.03;5055785;28;20126;-73
2023/12/09 09:19:17;;;;;;;15.85;3.85;;;;;;;5.92;100.00;100497.63;5042125;28;20064;-73
2023/12/09 09:21:42;;;;;;;15.13;3.65;;;;;;;5.93;100.00;100487.09;5054279;28;20127;-73
2023/12/09 09:24:08;;;;;;;12.20;3.03;;;;;;;5.98;100.00;100468.69;5044208;28;20120;-73
2023/12/09 09:26:34;;;;;;;13.05;4.40;;;;;;;5.96;100.00;100466.09;5063450;28;20032;-73
2023/12/09 09:29:00;;;;;;;11.88;3.65;;;;;;;5.95;100.00;100464.34;5069594;28;20036;-73
2023/12/09 09:31:25;;;;;;;18.08;3.55;;;;;;;5.97;100.00;100453.81;5064007;28;20142;-73
2023/12/09 09:33:51;;;;;;;19.52;3.35;;;;;;;6.01;100.00;100459.03;5057582;28;20045;-74
2023/12/09 09:36:17;;;;;;;14.88;3.38;;;;;;;6.01;100.00;100463.44;5060257;28;20060;-73
2023/12/09 09:38:43;;;;;;;17.02;3.55;;;;;;;5.97;100.00;100456.44;5058498;28;20040;-73
2023/12/09 09:41:22;;;;;;;16.98;3.03;;;;;;;6.04;100.00;100455.50;5071748;28;20032;-73
2023/12/09 09:43:58;;;;;;;17.13;3.40;;;;;;;6.03;100.00;100451.13;5074202;28;20025;-73
2023/12/09 09:46:24;;;;;;;11.23;2.80;;;;;;;6.08;100.00;100444.06;5073448;28;20117;-73
2023/12/09 09:48:51;;;;;;;14.00;3.30;;;;;;;6.11;100.00;100448.41;5064080;28;20029;-73
2023/12/09 09:51:26;;;;;;;19.17;3.20;;;;;;;6.14;100.00;100438.75;5055632;28;20036;-73
2023/12/09 09:54:10;;;;;;;10.18;3.00;;;;;;;6.18;100.00;100434.31;5072632;28;20033;-73
2023/12/09 09:56:36;;;;;;;19.83;3.80;;;;;;;6.20;100.00;100432.56;5073165;28;20337;-73
2023/12/09 09:59:03;;;;;;;13.45;2.97;;;;;;;6.24;100.00;100429.88;5032540;28;20045;-73
2023/12/09 10:01:29;;;;;;;13.00;3.00;;;;;;;6.30;100.00;100422.81;5068848;28;20052;-73
2023/12/09 10:03:55;;;;;;;14.60;3.15;;;;;;;6.37;100.00;100406.06;5071074;28;20036;-73
2023/12/09 10:06:22;;;;;;;12.63;2.75;;;;;;;6.38;100.00;100387.66;5073762;28;20040;-73
2023/12/09 10:08:48;;;;;;;14.57;3.10;;;;;;;6.39;100.00;100378.00;5073862;28;20055;-73
2023/12/09 10:11:14;;;;;;;19.40;2.78;;;;;;;6.44;100.00;100361.28;5073842;28;20036;-73
2023/12/09 10:13:41;;;;;;;15.80;2.58;;;;;;;6.44;100.00;100349.88;5055161;28;20438;-73
2023/12/09 10:16:06;;;;;;;14.77;3.05;;;;;;;6.50;100.00;100343.66;5065469;28;20037;-72
2023/12/09 10:18:34;;;;;;;4.05;2.15;;;;;;;6.53;100.00;100334.00;5069576;28;20402;-73
2023/12/09 10:21:00;;;;;;;15.27;3.10;;;;;;;6.53;100.00;100318.22;5073824;28;20390;-73
2023/12/09 10:23:25;;;;;;;12.48;3.03;;;;;;;6.54;100.00;100312.03;5062686;28;20036;-73
2023/12/09 10:25:51;;;;;;;17.75;3.05;;;;;;;6.54;100.00;100301.53;5062466;28;20645;-72
2023/12/09 10:28:16;;;;;;;13.55;3.10;;;;;;;6.59;100.00;100302.31;5073355;28;20060;-73
2023/12/09 10:30:42;;;;;;;11.02;2.78;;;;;;;6.60;100.00;100288.28;5050558;28;20479;-73
2023/12/09 10:33:10;;;;;;;8.60;2.80;;;;;;;6.66;100.00;100279.44;5071793;28;20039;-73
2023/12/09 10:35:35;;;;;;;9.32;3.35;;;;;;;6.65;100.00;100273.31;5064525;28;20393;-73
2023/12/09 10:38:04;;;;;;;11.77;3.10;;;;;;;6.65;100.00;100270.69;5067053;28;20043;-73
2023/12/09 10:40:31;;;;;;;10.85;2.47;;;;;;;6.68;100.00;100269.75;5064729;28;20032;-73
2023/12/09 10:42:57;;;;;;;12.15;3.03;;;;;;;6.74;100.00;100268.78;5070847;28;20074;-73
2023/12/09 10:45:23;;;;;;;10.38;2.72;;;;;;;6.74;100.00;100258.25;5072905;28;20437;-73
2023/12/09 10:47:48;;;;;;;11.73;2.72;;;;;;;6.74;100.00;100245.97;5072772;28;20058;-73
2023/12/09 10:50:14;;;;;;;14.45;2.63;;;;;;;6.74;100.00;100230.19;5054831;28;20028;-73
2023/12/09 10:52:40;;;;;;;15.18;2.88;;;;;;;6.76;100.00;100217.00;5051051;28;20507;-73
2023/12/09 10:55:06;;;;;;;16.25;3.50;;;;;;;6.76;100.00;100204.72;5071273;28;20059;-74
2023/12/09 10:57:33;;;;;;;17.50;3.08;;;;;;;6.73;100.00;100186.34;5071594;28;20055;-75
2023/12/09 11:00:00;;;;;;;9.07;2.70;;;;;;;6.73;100.00;100188.13;5071560;28;20032;-74
2023/12/09 11:02:26;;;;;;;14.18;3.03;;;;;;;6.74;100.00;100188.06;5071444;28;20040;-75
2023/12/09 11:04:53;;;;;;;14.40;3.22;;;;;;;6.76;100.00;100177.53;5072613;28;20051;-74
2023/12/09 11:07:19;;;;;;;10.95;2.42;;;;;;;6.77;100.00;100180.13;5072587;28;20051;-74
2023/12/09 11:09:46;;;;;;;8.63;2.67;;;;;;;6.70;100.00;100156.56;5072464;28;20032;-74
2023/12/09 11:12:25;;;;;;;12.45;2.90;;;;;;;6.77;100.00;100150.31;5071116;28;20035;-74